sensor_id;sensor_type;location;lat;lon;timestamp;pressure;altitude;pressure_sealevel;temperature;humidity
69402;BME280;56589;51.992;5.924;2022-09-09T00:00:15;100236.16;;;14.96;74.00
69402;BME280;56589;51.992;5.924;2022-09-09T00:02:49;100239.09;;;14.93;74.22
69402;BME280;56589;51.992;5.924;2022-09-09T00:05:29;100235.63;;;14.92;74.22
69402;BME280;56589;51.992;5.924;2022-09-09T00:08:03;100241.59;;;14.94;73.89
69402;BME280;56589;51.992;5.924;2022-09-09T00:10:31;100232.69;;;14.95;73.94
69402;BME280;56589;51.992;5.924;2022-09-09T00:13:05;100241.59;;;14.94;74.42
69402;BME280;56589;51.992;5.924;2022-09-09T00:15:49;100234.38;;;14.96;74.29
69402;BME280;56589;51.992;5.924;2022-09-09T00:18:25;100230.75;;;14.97;74.83
69402;BME280;56589;51.992;5.924;2022-09-09T00:21:00;100225.31;;;14.99;74.78
69402;BME280;56589;51.992;5.924;2022-09-09T00:23:33;100221.69;;;15.00;74.74
69402;BME280;56589;51.992;5.924;2022-09-09T00:26:04;100224.06;;;15.03;74.54
69402;BME280;56589;51.992;5.924;2022-09-09T00:28:41;100231.03;;;15.04;74.49
69402;BME280;56589;51.992;5.924;2022-09-09T00:31:20;100231.69;;;15.06;74.88
69402;BME280;56589;51.992;5.924;2022-09-09T00:33:51;100227.97;;;15.08;74.97
69402;BME280;56589;51.992;5.924;2022-09-09T00:36:22;100227.50;;;15.13;74.79
69402;BME280;56589;51.992;5.924;2022-09-09T00:38:56;100232.38;;;15.18;75.16
69402;BME280;56589;51.992;5.924;2022-09-09T00:41:35;100233.91;;;15.20;74.86
69402;BME280;56589;51.992;5.924;2022-09-09T00:44:22;100219.59;;;15.23;74.95
69402;BME280;56589;51.992;5.924;2022-09-09T00:47:21;100218.44;;;15.25;74.84
69402;BME280;56589;51.992;5.924;2022-09-09T00:50:12;100221.09;;;15.25;74.72
69402;BME280;56589;51.992;5.924;2022-09-09T00:52:52;100217.78;;;15.23;74.88
69402;BME280;56589;51.992;5.924;2022-09-09T00:55:36;100214.56;;;15.20;74.99
69402;BME280;56589;51.992;5.924;2022-09-09T00:58:09;100214.84;;;15.17;74.79
69402;BME280;56589;51.992;5.924;2022-09-09T01:00:39;100213.47;;;15.12;74.45
69402;BME280;56589;51.992;5.924;2022-09-09T01:03:19;100211.81;;;15.11;74.77
69402;BME280;56589;51.992;5.924;2022-09-09T01:06:01;100208.59;;;15.08;74.84
69402;BME280;56589;51.992;5.924;2022-09-09T01:08:43;100206.41;;;15.03;74.80
69402;BME280;56589;51.992;5.924;2022-09-09T01:11:36;100209.59;;;14.97;74.50
69402;BME280;56589;51.992;5.924;2022-09-09T01:14:18;100215.97;;;14.95;74.46
69402;BME280;56589;51.992;5.924;2022-09-09T01:16:57;100221.72;;;14.90;74.75
69402;BME280;56589;51.992;5.924;2022-09-09T01:19:37;100213.22;;;14.87;74.94
69402;BME280;56589;51.992;5.924;2022-09-09T01:22:21;100213.63;;;14.82;75.02
69402;BME280;56589;51.992;5.924;2022-09-09T01:25:29;100211.41;;;14.77;75.21
69402;BME280;56589;51.992;5.924;2022-09-09T01:28:19;100215.47;;;14.72;74.60
69402;BME280;56589;51.992;5.924;2022-09-09T01:30:48;100212.94;;;14.70;75.04
69402;BME280;56589;51.992;5.924;2022-09-09T01:33:15;100210.44;;;14.69;75.04
69402;BME280;56589;51.992;5.924;2022-09-09T01:35:46;100221.28;;;14.66;74.79
69402;BME280;56589;51.992;5.924;2022-09-09T01:38:17;100213.63;;;14.63;74.99
69402;BME280;56589;51.992;5.924;2022-09-09T01:40:43;100222.66;;;14.60;74.99
69402;BME280;56589;51.992;5.924;2022-09-09T01:43:10;100220.25;;;14.57;75.01
69402;BME280;56589;51.992;5.924;2022-09-09T01:45:39;100217.09;;;14.53;75.46
69402;BME280;56589;51.992;5.924;2022-09-09T01:48:07;100211.22;;;14.50;75.57
69402;BME280;56589;51.992;5.924;2022-09-09T01:50:33;100210.41;;;14.49;75.37
69402;BME280;56589;51.992;5.924;2022-09-09T01:53:01;100213.19;;;14.48;75.42
69402;BME280;56589;51.992;5.924;2022-09-09T01:55:30;100209.97;;;14.44;75.46
69402;BME280;56589;51.992;5.924;2022-09-09T01:58:11;100204.00;;;14.42;75.05
69402;BME280;56589;51.992;5.924;2022-09-09T02:01:01;100206.22;;;14.37;75.47
69402;BME280;56589;51.992;5.924;2022-09-09T02:03:35;100204.81;;;14.33;75.34
69402;BME280;56589;51.992;5.924;2022-09-09T02:06:08;100204.94;;;14.31;75.60
69402;BME280;56589;51.992;5.924;2022-09-09T02:08:46;100202.44;;;14.30;75.15
69402;BME280;56589;51.992;5.924;2022-09-09T02:11:16;100206.91;;;14.29;75.39
69402;BME280;56589;51.992;5.924;2022-09-09T02:13:45;100201.88;;;14.26;75.65
69402;BME280;56589;51.992;5.924;2022-09-09T02:16:18;100200.50;;;14.22;75.54
69402;BME280;56589;51.992;5.924;2022-09-09T02:18:53;100204.09;;;14.21;75.19
69402;BME280;56589;51.992;5.924;2022-09-09T02:21:27;100198.25;;;14.18;75.38
69402;BME280;56589;51.992;5.924;2022-09-09T02:23:56;100200.19;;;14.16;75.24
69402;BME280;56589;51.992;5.924;2022-09-09T02:26:27;100192.41;;;14.14;75.39
69402;BME280;56589;51.992;5.924;2022-09-09T02:28:55;100192.53;;;14.13;75.69
69402;BME280;56589;51.992;5.924;2022-09-09T02:31:28;100195.31;;;14.11;75.41
69402;BME280;56589;51.992;5.924;2022-09-09T02:33:57;100186.69;;;14.09;75.39
69402;BME280;56589;51.992;5.924;2022-09-09T02:36:28;100189.47;;;14.08;75.54
69402;BME280;56589;51.992;5.924;2022-09-09T02:38:59;100187.13;;;14.04;75.33
69402;BME280;56589;51.992;5.924;2022-09-09T02:41:30;100189.19;;;14.01;75.62
69402;BME280;56589;51.992;5.924;2022-09-09T02:43:58;100189.47;;;13.98;75.52
69402;BME280;56589;51.992;5.924;2022-09-09T02:46:49;100188.59;;;13.97;75.98
69402;BME280;56589;51.992;5.924;2022-09-09T02:49:37;100182.63;;;13.95;75.47
69402;BME280;56589;51.992;5.924;2022-09-09T02:52:13;100175.00;;;13.92;75.70
69402;BME280;56589;51.992;5.924;2022-09-09T02:54:41;100178.56;;;13.91;75.58
69402;BME280;56589;51.992;5.924;2022-09-09T02:57:10;100177.06;;;13.89;75.72
69402;BME280;56589;51.992;5.924;2022-09-09T02:59:43;100183.31;;;13.88;75.83
69402;BME280;56589;51.992;5.924;2022-09-09T03:02:12;100185.94;;;13.88;75.55
69402;BME280;56589;51.992;5.924;2022-09-09T03:04:38;100174.69;;;13.86;75.53
69402;BME280;56589;51.992;5.924;2022-09-09T03:07:06;100178.16;;;13.86;75.49
69402;BME280;56589;51.992;5.924;2022-09-09T03:09:31;100180.91;;;13.85;75.88
69402;BME280;56589;51.992;5.924;2022-09-09T03:11:57;100181.06;;;13.83;76.14
69402;BME280;56589;51.992;5.924;2022-09-09T03:14:23;100182.03;;;13.82;76.24
69402;BME280;56589;51.992;5.924;2022-09-09T03:16:49;100189.13;;;13.82;75.88
69402;BME280;56589;51.992;5.924;2022-09-09T03:19:17;100190.09;;;13.81;76.23
69402;BME280;56589;51.992;5.924;2022-09-09T03:21:43;100181.22;;;13.82;76.30
69402;BME280;56589;51.992;5.924;2022-09-09T03:24:08;100190.94;;;13.81;76.26
69402;BME280;56589;51.992;5.924;2022-09-09T03:26:34;100199.69;;;13.82;76.03
69402;BME280;56589;51.992;5.924;2022-09-09T03:29:00;100183.00;;;13.81;75.65
69402;BME280;56589;51.992;5.924;2022-09-09T03:31:25;100192.72;;;13.81;75.67
69402;BME280;56589;51.992;5.924;2022-09-09T03:33:51;100195.38;;;13.81;75.90
69402;BME280;56589;51.992;5.924;2022-09-09T03:36:20;100199.09;;;13.78;75.99
69402;BME280;56589;51.992;5.924;2022-09-09T03:38:45;100198.41;;;13.76;76.43
69402;BME280;56589;51.992;5.924;2022-09-09T03:41:11;100190.63;;;13.74;76.23
69402;BME280;56589;51.992;5.924;2022-09-09T03:43:37;100194.09;;;13.75;76.22
69402;BME280;56589;51.992;5.924;2022-09-09T03:46:03;100193.13;;;13.76;76.52
69402;BME280;56589;51.992;5.924;2022-09-09T03:48:29;100194.09;;;13.75;76.21
69402;BME280;56589;51.992;5.924;2022-09-09T03:50:55;100195.06;;;13.74;76.31
69402;BME280;56589;51.992;5.924;2022-09-09T03:53:23;100192.69;;;13.71;76.46
69402;BME280;56589;51.992;5.924;2022-09-09T03:55:52;100184.91;;;13.69;76.94
69402;BME280;56589;51.992;5.924;2022-09-09T03:58:20;100184.06;;;13.69;77.03
69402;BME280;56589;51.992;5.924;2022-09-09T04:00:53;100186.56;;;13.70;76.74
69402;BME280;56589;51.992;5.924;2022-09-09T04:03:20;100185.59;;;13.71;77.31
69402;BME280;56589;51.992;5.924;2022-09-09T04:05:48;100191.19;;;13.78;77.34
69402;BME280;56589;51.992;5.924;2022-09-09T04:08:14;100184.69;;;13.82;76.79
69402;BME280;56589;51.992;5.924;2022-09-09T04:10:44;100188.72;;;13.86;77.16
69402;BME280;56589;51.992;5.924;2022-09-09T04:13:10;100192.75;;;13.90;76.92
69402;BME280;56589;51.992;5.924;2022-09-09T04:15:35;100185.56;;;13.92;76.89
69402;BME280;56589;51.992;5.924;2022-09-09T04:18:01;100187.06;;;13.95;77.17
69402;BME280;56589;51.992;5.924;2022-09-09T04:20:27;100182.38;;;13.98;76.98
69402;BME280;56589;51.992;5.924;2022-09-09T04:22:52;100178.63;;;14.01;76.74
69402;BME280;56589;51.992;5.924;2022-09-09T04:25:18;100176.66;;;14.03;76.49
69402;BME280;56589;51.992;5.924;2022-09-09T04:27:46;100174.59;;;14.07;76.42
69402;BME280;56589;51.992;5.924;2022-09-09T04:30:12;100169.03;;;14.10;76.66
69402;BME280;56589;51.992;5.924;2022-09-09T04:32:38;100169.47;;;14.15;76.90
69402;BME280;56589;51.992;5.924;2022-09-09T04:35:04;100172.81;;;14.17;76.45
69402;BME280;56589;51.992;5.924;2022-09-09T04:37:30;100175.19;;;14.20;76.51
69402;BME280;56589;51.992;5.924;2022-09-09T04:39:56;100168.09;;;14.20;76.50
69402;BME280;56589;51.992;5.924;2022-09-09T04:42:21;100176.00;;;14.20;76.53
69402;BME280;56589;51.992;5.924;2022-09-09T04:44:49;100166.16;;;14.22;76.63
69402;BME280;56589;51.992;5.924;2022-09-09T04:47:15;100167.84;;;14.23;76.74
69402;BME280;56589;51.992;5.924;2022-09-09T04:49:41;100168.53;;;14.25;76.89
69402;BME280;56589;51.992;5.924;2022-09-09T04:52:07;100163.94;;;14.27;76.61
69402;BME280;56589;51.992;5.924;2022-09-09T04:54:32;100162.84;;;14.30;76.70
69402;BME280;56589;51.992;5.924;2022-09-09T04:56:58;100172.28;;;14.32;77.15
69402;BME280;56589;51.992;5.924;2022-09-09T04:59:24;100168.66;;;14.33;76.89
69402;BME280;56589;51.992;5.924;2022-09-09T05:01:52;100177.16;;;14.37;76.75
69402;BME280;56589;51.992;5.924;2022-09-09T05:04:17;100163.94;;;14.37;76.73
69402;BME280;56589;51.992;5.924;2022-09-09T05:06:43;100162.97;;;14.38;77.07
69402;BME280;56589;51.992;5.924;2022-09-09T05:09:09;100169.81;;;14.41;76.64
69402;BME280;56589;51.992;5.924;2022-09-09T05:11:35;100159.78;;;14.44;76.87
69402;BME280;56589;51.992;5.924;2022-09-09T05:14:00;100159.53;;;14.47;77.00
69402;BME280;56589;51.992;5.924;2022-09-09T05:16:26;100157.56;;;14.49;76.72
69402;BME280;56589;51.992;5.924;2022-09-09T05:18:55;100157.00;;;14.55;76.98
69402;BME280;56589;51.992;5.924;2022-09-09T05:21:22;100156.84;;;14.57;76.79
69402;BME280;56589;51.992;5.924;2022-09-09T05:23:49;100149.75;;;14.57;76.92
69402;BME280;56589;51.992;5.924;2022-09-09T05:26:17;100152.28;;;14.59;77.01
69402;BME280;56589;51.992;5.924;2022-09-09T05:28:44;100154.78;;;14.61;77.04
69402;BME280;56589;51.992;5.924;2022-09-09T05:31:12;100149.13;;;14.65;76.96
69402;BME280;56589;51.992;5.924;2022-09-09T05:33:40;100148.81;;;14.68;76.89
69402;BME280;56589;51.992;5.924;2022-09-09T05:36:12;100159.25;;;14.70;76.88
69402;BME280;56589;51.992;5.924;2022-09-09T05:38:39;100146.59;;;14.73;76.74
69402;BME280;56589;51.992;5.924;2022-09-09T05:41:06;100147.13;;;14.77;77.18
69402;BME280;56589;51.992;5.924;2022-09-09T05:43:32;100155.63;;;14.80;77.18
69402;BME280;56589;51.992;5.924;2022-09-09T05:46:00;100152.16;;;14.80;76.90
69402;BME280;56589;51.992;5.924;2022-09-09T05:48:28;100152.84;;;14.82;77.20
69402;BME280;56589;51.992;5.924;2022-09-09T05:50:55;100147.41;;;14.83;76.63
69402;BME280;56589;51.992;5.924;2022-09-09T05:53:23;100158.53;;;14.87;76.73
69402;BME280;56589;51.992;5.924;2022-09-09T05:55:49;100148.53;;;14.91;76.72
69402;BME280;56589;51.992;5.924;2022-09-09T05:58:15;100144.59;;;15.04;77.47
69402;BME280;56589;51.992;5.924;2022-09-09T06:00:41;100155.06;;;15.43;78.17
69402;BME280;56589;51.992;5.924;2022-09-09T06:03:09;100160.00;;;15.93;77.61
69402;BME280;56589;51.992;5.924;2022-09-09T06:05:36;100160.75;;;16.31;76.31
69402;BME280;56589;51.992;5.924;2022-09-09T06:08:01;100159.41;;;16.62;76.27
69402;BME280;56589;51.992;5.924;2022-09-09T06:10:30;100151.31;;;17.08;75.50
69402;BME280;56589;51.992;5.924;2022-09-09T06:12:55;100164.53;;;17.60;75.43
69402;BME280;56589;51.992;5.924;2022-09-09T06:15:21;100156.97;;;18.15;74.15
69402;BME280;56589;51.992;5.924;2022-09-09T06:17:47;100158.56;;;18.58;72.71
69402;BME280;56589;51.992;5.924;2022-09-09T06:20:12;100157.38;;;19.02;71.22
69402;BME280;56589;51.992;5.924;2022-09-09T06:22:39;100156.50;;;19.34;70.49
69402;BME280;56589;51.992;5.924;2022-09-09T06:25:06;100160.59;;;19.61;68.73
69402;BME280;56589;51.992;5.924;2022-09-09T06:27:36;100169.78;;;19.42;67.17
69402;BME280;56589;51.992;5.924;2022-09-09T06:30:02;100166.00;;;19.12;67.38
69402;BME280;56589;51.992;5.924;2022-09-09T06:32:28;100164.38;;;18.86;68.29
69402;BME280;56589;51.992;5.924;2022-09-09T06:34:53;100170.34;;;18.89;68.41
69402;BME280;56589;51.992;5.924;2022-09-09T06:37:19;100164.06;;;18.90;67.56
69402;BME280;56589;51.992;5.924;2022-09-09T06:39:45;100169.84;;;18.69;67.00
69402;BME280;56589;51.992;5.924;2022-09-09T06:42:10;100164.00;;;18.41;67.16
69402;BME280;56589;51.992;5.924;2022-09-09T06:44:39;100168.41;;;18.08;67.19
69402;BME280;56589;51.992;5.924;2022-09-09T06:47:05;100163.81;;;17.75;67.97
69402;BME280;56589;51.992;5.924;2022-09-09T06:49:30;100165.03;;;17.55;68.40
69402;BME280;56589;51.992;5.924;2022-09-09T06:51:56;100162.69;;;17.52;68.90
69402;BME280;56589;51.992;5.924;2022-09-09T06:54:22;100166.16;;;17.52;68.94
69402;BME280;56589;51.992;5.924;2022-09-09T06:56:47;100159.31;;;17.42;68.56
69402;BME280;56589;51.992;5.924;2022-09-09T06:59:13;100151.31;;;17.34;69.48
69402;BME280;56589;51.992;5.924;2022-09-09T07:01:44;100161.53;;;17.29;69.10
69402;BME280;56589;51.992;5.924;2022-09-09T07:04:11;100153.94;;;17.34;69.69
69402;BME280;56589;51.992;5.924;2022-09-09T07:06:38;100148.22;;;17.46;69.22
69402;BME280;56589;51.992;5.924;2022-09-09T07:09:07;100162.50;;;17.53;68.96
69402;BME280;56589;51.992;5.924;2022-09-09T07:11:38;100167.69;;;17.55;69.22
69402;BME280;56589;51.992;5.924;2022-09-09T07:14:05;100169.50;;;17.55;69.17
69402;BME280;56589;51.992;5.924;2022-09-09T07:16:30;100158.88;;;17.55;68.95
69402;BME280;56589;51.992;5.924;2022-09-09T07:18:59;100166.56;;;17.66;69.51
69402;BME280;56589;51.992;5.924;2022-09-09T07:21:26;100163.50;;;17.78;68.99
69402;BME280;56589;51.992;5.924;2022-09-09T07:23:53;100161.00;;;17.77;68.81
69402;BME280;56589;51.992;5.924;2022-09-09T07:26:21;100162.00;;;17.76;68.76
69402;BME280;56589;51.992;5.924;2022-09-09T07:28:48;100162.63;;;17.70;68.76
69402;BME280;56589;51.992;5.924;2022-09-09T07:31:15;100164.41;;;17.61;68.43
69402;BME280;56589;51.992;5.924;2022-09-09T07:33:43;100170.00;;;17.58;68.79
69402;BME280;56589;51.992;5.924;2022-09-09T07:36:14;100167.00;;;17.53;68.52
69402;BME280;56589;51.992;5.924;2022-09-09T07:38:42;100167.81;;;17.53;69.19
69402;BME280;56589;51.992;5.924;2022-09-09T07:41:12;100167.88;;;17.62;69.04
69402;BME280;56589;51.992;5.924;2022-09-09T07:43:41;100167.63;;;17.73;68.69
69402;BME280;56589;51.992;5.924;2022-09-09T07:46:09;100159.50;;;17.74;68.12
69402;BME280;56589;51.992;5.924;2022-09-09T07:48:36;100171.78;;;17.75;68.17
69402;BME280;56589;51.992;5.924;2022-09-09T07:51:08;100168.66;;;17.80;68.16
69402;BME280;56589;51.992;5.924;2022-09-09T07:53:39;100172.84;;;17.91;68.45
69402;BME280;56589;51.992;5.924;2022-09-09T07:56:06;100174.88;;;17.97;67.97
69402;BME280;56589;51.992;5.924;2022-09-09T07:58:34;100178.50;;;17.96;67.96
69402;BME280;56589;51.992;5.924;2022-09-09T08:01:00;100178.47;;;17.88;67.27
69402;BME280;56589;51.992;5.924;2022-09-09T08:03:32;100184.06;;;17.76;67.76
69402;BME280;56589;51.992;5.924;2022-09-09T08:06:00;100172.59;;;17.76;67.86
69402;BME280;56589;51.992;5.924;2022-09-09T08:08:27;100181.75;;;17.82;67.82
69402;BME280;56589;51.992;5.924;2022-09-09T08:11:01;100181.47;;;17.93;67.79
69402;BME280;56589;51.992;5.924;2022-09-09T08:13:28;100187.34;;;18.04;67.47
69402;BME280;56589;51.992;5.924;2022-09-09T08:15:54;100186.50;;;18.04;66.86
69402;BME280;56589;51.992;5.924;2022-09-09T08:18:20;100181.66;;;17.91;66.53
69402;BME280;56589;51.992;5.924;2022-09-09T08:20:45;100182.41;;;17.75;66.87
69402;BME280;56589;51.992;5.924;2022-09-09T08:23:11;100180.00;;;17.64;67.02
69402;BME280;56589;51.992;5.924;2022-09-09T08:25:37;100178.78;;;17.59;67.16
69402;BME280;56589;51.992;5.924;2022-09-09T08:28:05;100181.09;;;17.53;67.72
69402;BME280;56589;51.992;5.924;2022-09-09T08:30:31;100187.09;;;17.56;67.59
69402;BME280;56589;51.992;5.924;2022-09-09T08:32:56;100179.50;;;17.61;67.57
69402;BME280;56589;51.992;5.924;2022-09-09T08:35:22;100191.66;;;17.71;67.37
69402;BME280;56589;51.992;5.924;2022-09-09T08:37:48;100186.06;;;17.74;66.98
69402;BME280;56589;51.992;5.924;2022-09-09T08:40:22;100192.34;;;17.73;66.74
69402;BME280;56589;51.992;5.924;2022-09-09T08:42:57;100188.34;;;17.69;66.77
69402;BME280;56589;51.992;5.924;2022-09-09T08:45:34;100194.81;;;17.67;67.05
69402;BME280;56589;51.992;5.924;2022-09-09T08:48:26;100187.28;;;17.62;66.96
69402;BME280;56589;51.992;5.924;2022-09-09T08:51:09;100192.25;;;17.57;66.58
69402;BME280;56589;51.992;5.924;2022-09-09T08:53:39;100195.22;;;17.54;66.93
69402;BME280;56589;51.992;5.924;2022-09-09T08:56:11;100190.75;;;17.55;67.07
69402;BME280;56589;51.992;5.924;2022-09-09T08:58:45;100193.91;;;17.58;67.29
69402;BME280;56589;51.992;5.924;2022-09-09T09:01:44;100197.09;;;17.62;67.40
69402;BME280;56589;51.992;5.924;2022-09-09T09:04:37;100197.75;;;17.64;67.50
69402;BME280;56589;51.992;5.924;2022-09-09T09:07:19;100198.13;;;17.69;67.20
69402;BME280;56589;51.992;5.924;2022-09-09T09:09:55;100200.47;;;17.72;67.23
69402;BME280;56589;51.992;5.924;2022-09-09T09:12:28;100207.97;;;17.76;66.66
69402;BME280;56589;51.992;5.924;2022-09-09T09:14:59;100206.81;;;17.79;66.57
69402;BME280;56589;51.992;5.924;2022-09-09T09:17:35;100202.84;;;17.83;66.01
69402;BME280;56589;51.992;5.924;2022-09-09T09:20:03;100211.81;;;17.90;66.02
69402;BME280;56589;51.992;5.924;2022-09-09T09:22:42;100210.69;;;17.93;65.28
69402;BME280;56589;51.992;5.924;2022-09-09T09:25:15;100203.38;;;17.87;64.87
69402;BME280;56589;51.992;5.924;2022-09-09T09:27:49;100210.50;;;17.86;65.07
69402;BME280;56589;51.992;5.924;2022-09-09T09:30:31;100212.81;;;17.89;65.01
69402;BME280;56589;51.992;5.924;2022-09-09T09:33:08;100197.41;;;17.93;64.48
69402;BME280;56589;51.992;5.924;2022-09-09T09:35:41;100210.16;;;17.89;64.91
69402;BME280;56589;51.992;5.924;2022-09-09T09:38:15;100207.03;;;17.86;64.78
69402;BME280;56589;51.992;5.924;2022-09-09T09:40:49;100205.38;;;17.85;64.90
69402;BME280;56589;51.992;5.924;2022-09-09T09:43:20;100209.34;;;17.89;65.30
69402;BME280;56589;51.992;5.924;2022-09-09T09:45:49;100210.38;;;17.96;65.00
69402;BME280;56589;51.992;5.924;2022-09-09T09:48:17;100207.06;;;18.02;64.57
69402;BME280;56589;51.992;5.924;2022-09-09T09:50:48;100209.91;;;18.09;64.96
69402;BME280;56589;51.992;5.924;2022-09-09T09:53:20;100210.44;;;18.20;64.64
69402;BME280;56589;51.992;5.924;2022-09-09T09:55:53;100207.19;;;18.35;64.00
69402;BME280;56589;51.992;5.924;2022-09-09T09:58:21;100205.72;;;18.48;63.96
69402;BME280;56589;51.992;5.924;2022-09-09T10:00:50;100201.94;;;18.59;63.68
69402;BME280;56589;51.992;5.924;2022-09-09T10:03:27;100207.78;;;18.71;63.45
69402;BME280;56589;51.992;5.924;2022-09-09T10:05:55;100204.59;;;18.75;62.84
69402;BME280;56589;51.992;5.924;2022-09-09T10:08:24;100207.59;;;18.72;62.61
69402;BME280;56589;51.992;5.924;2022-09-09T10:11:05;100206.78;;;18.72;62.60
69402;BME280;56589;51.992;5.924;2022-09-09T10:13:50;100208.56;;;18.63;62.67
69402;BME280;56589;51.992;5.924;2022-09-09T10:16:37;100218.34;;;18.54;62.38
69402;BME280;56589;51.992;5.924;2022-09-09T10:19:18;100211.03;;;18.48;62.48
69402;BME280;56589;51.992;5.924;2022-09-09T10:22:04;100209.50;;;18.38;62.67
69402;BME280;56589;51.992;5.924;2022-09-09T10:25:00;100200.53;;;18.30;62.73
69402;BME280;56589;51.992;5.924;2022-09-09T10:27:44;100205.47;;;18.25;63.39
69402;BME280;56589;51.992;5.924;2022-09-09T10:30:24;100200.00;;;18.19;63.11
69402;BME280;56589;51.992;5.924;2022-09-09T10:33:04;100207.13;;;18.18;62.95
69402;BME280;56589;51.992;5.924;2022-09-09T10:35:41;100201.50;;;18.21;63.21
69402;BME280;56589;51.992;5.924;2022-09-09T10:38:21;100207.84;;;18.28;63.34
69402;BME280;56589;51.992;5.924;2022-09-09T10:41:13;100204.66;;;18.33;63.13
69402;BME280;56589;51.992;5.924;2022-09-09T10:44:02;100199.22;;;18.35;63.01
69402;BME280;56589;51.992;5.924;2022-09-09T10:46:49;100204.53;;;18.35;62.46
69402;BME280;56589;51.992;5.924;2022-09-09T10:49:34;100212.63;;;18.33;62.62
69402;BME280;56589;51.992;5.924;2022-09-09T10:52:30;100203.53;;;18.27;63.20
69402;BME280;56589;51.992;5.924;2022-09-09T10:55:10;100209.47;;;18.21;63.38
69402;BME280;56589;51.992;5.924;2022-09-09T10:57:44;100193.69;;;18.20;63.71
69402;BME280;56589;51.992;5.924;2022-09-09T11:00:16;100191.84;;;18.20;63.79
69402;BME280;56589;51.992;5.924;2022-09-09T11:02:44;100199.69;;;18.22;63.61
69402;BME280;56589;51.992;5.924;2022-09-09T11:05:19;100192.19;;;18.25;63.39
69402;BME280;56589;51.992;5.924;2022-09-09T11:07:55;100203.19;;;18.30;63.40
69402;BME280;56589;51.992;5.924;2022-09-09T11:10:33;100194.19;;;18.31;62.77
69402;BME280;56589;51.992;5.924;2022-09-09T11:13:10;100195.88;;;18.32;62.85
69402;BME280;56589;51.992;5.924;2022-09-09T11:15:45;100197.56;;;18.33;63.05
69402;BME280;56589;51.992;5.924;2022-09-09T11:18:16;100197.03;;;18.38;62.87
69402;BME280;56589;51.992;5.924;2022-09-09T11:20:46;100204.00;;;18.31;63.14
69402;BME280;56589;51.992;5.924;2022-09-09T11:23:20;100198.53;;;18.32;63.02
69402;BME280;56589;51.992;5.924;2022-09-09T11:25:53;100205.53;;;18.33;64.20
69402;BME280;56589;51.992;5.924;2022-09-09T11:28:40;100216.16;;;18.42;64.74
69402;BME280;56589;51.992;5.924;2022-09-09T11:31:41;100213.19;;;18.53;64.70
69402;BME280;56589;51.992;5.924;2022-09-09T11:34:25;100202.22;;;18.56;64.73
69402;BME280;56589;51.992;5.924;2022-09-09T11:37:14;100213.41;;;18.59;64.74
69402;BME280;56589;51.992;5.924;2022-09-09T11:40:07;100209.91;;;18.59;64.45
69402;BME280;56589;51.992;5.924;2022-09-09T11:42:40;100207.25;;;18.59;64.18
69402;BME280;56589;51.992;5.924;2022-09-09T11:45:15;100213.22;;;18.61;64.25
69402;BME280;56589;51.992;5.924;2022-09-09T11:47:52;100218.56;;;18.61;64.42
69402;BME280;56589;51.992;5.924;2022-09-09T11:50:32;100217.72;;;18.69;64.69
69402;BME280;56589;51.992;5.924;2022-09-09T11:56:09;100213.44;;;18.84;64.04
69402;BME280;56589;51.992;5.924;2022-09-09T11:58:39;100204.94;;;18.80;64.40
69402;BME280;56589;51.992;5.924;2022-09-09T12:01:24;100207.25;;;18.75;64.44
69402;BME280;56589;51.992;5.924;2022-09-09T12:04:05;100214.22;;;18.68;65.02
69402;BME280;56589;51.992;5.924;2022-09-09T12:06:43;100212.91;;;18.64;65.35
69402;BME280;56589;51.992;5.924;2022-09-09T12:09:18;100208.56;;;18.63;65.41
69402;BME280;56589;51.992;5.924;2022-09-09T12:11:50;100209.91;;;18.67;65.79
69402;BME280;56589;51.992;5.924;2022-09-09T12:14:21;100211.25;;;18.79;66.15
69402;BME280;56589;51.992;5.924;2022-09-09T12:16:49;100212.06;;;18.88;65.40
69402;BME280;56589;51.992;5.924;2022-09-09T12:19:17;100216.09;;;18.92;65.10
69402;BME280;56589;51.992;5.924;2022-09-09T12:21:51;100201.59;;;18.95;64.94
69402;BME280;56589;51.992;5.924;2022-09-09T12:24:30;100211.59;;;18.93;64.95
69402;BME280;56589;51.992;5.924;2022-09-09T12:27:08;100201.28;;;18.81;64.88
69402;BME280;56589;51.992;5.924;2022-09-09T12:29:47;100211.41;;;18.70;64.66
69402;BME280;56589;51.992;5.924;2022-09-09T12:32:23;100204.91;;;18.64;64.67
69402;BME280;56589;51.992;5.924;2022-09-09T12:34:53;100208.75;;;18.62;64.78
69402;BME280;56589;51.992;5.924;2022-09-09T12:37:27;100203.25;;;18.63;65.12
69402;BME280;56589;51.992;5.924;2022-09-09T12:39:59;100203.78;;;18.75;65.30
69402;BME280;56589;51.992;5.924;2022-09-09T12:42:29;100189.97;;;18.88;64.75
69402;BME280;56589;51.992;5.924;2022-09-09T12:44:57;100196.63;;;19.00;64.92
69402;BME280;56589;51.992;5.924;2022-09-09T12:47:39;100192.13;;;19.08;64.04
69402;BME280;56589;51.992;5.924;2022-09-09T12:50:17;100179.16;;;19.05;64.21
69402;BME280;56589;51.992;5.924;2022-09-09T12:52:47;100184.81;;;19.10;64.18
69402;BME280;56589;51.992;5.924;2022-09-09T12:55:18;100185.63;;;19.11;63.95
69402;BME280;56589;51.992;5.924;2022-09-09T12:57:49;100193.13;;;19.16;63.93
69402;BME280;56589;51.992;5.924;2022-09-09T13:00:17;100183.31;;;19.16;63.50
69402;BME280;56589;51.992;5.924;2022-09-09T13:02:49;100176.81;;;19.19;63.76
69402;BME280;56589;51.992;5.924;2022-09-09T13:05:19;100187.97;;;19.14;63.89
69402;BME280;56589;51.992;5.924;2022-09-09T13:07:48;100157.00;;;19.13;63.92
69402;BME280;56589;51.992;5.924;2022-09-09T13:10:19;100178.81;;;19.17;63.79
69402;BME280;56589;51.992;5.924;2022-09-09T13:12:52;100170.31;;;19.13;64.12
69402;BME280;56589;51.992;5.924;2022-09-09T13:15:21;100174.84;;;19.04;64.93
69402;BME280;56589;51.992;5.924;2022-09-09T13:17:51;100169.53;;;18.88;65.72